Impacts TAF Board
For situational awareness. Not to be used for flight planning purposes.
IDs:

KVCT - Victoria Rgnl, TX, US

Issued at 1120 UTC 23 Sep 2020
Updated at 1538 UTC 23 Sep 2020
Potential Impact None Slight Moderate High
Time1451Z 23/16Z 23/17Z 23/18Z 23/19Z 23/20Z 23/21Z 23/22Z 23/23Z 24/00Z 24/01Z 24/02Z 24/03Z 24/04Z>>
Type OBS PRVL PRVL PRVL PRVL PRVL PRVL PRVL PRVL PRVL PRVL PRVL PRVL PRVL
VIS 10 >6 >6 >6 >6 >6 >6 >6 >6 >6 >6 >6 >6 >6
CIG 11 13 13 13 -- -- -- -- -- -- -- -- -- --
Cover OVC OVC OVC OVC SCT SCT SCT SCT SCT SCT SCT SCT SCT SCT
FltCat MVFR MVFR MVFR MVFR VFR VFR VFR VFR VFR VFR VFR VFR VFR VFR
WX -- -- -- -- -- -- -- -- -- -- -- -- -- --
WDir 330 320 320 320 340 340 340 340 340 340 340 340 340 340
WSpd 12 14 14 14 9 9 9 9 9 9 9 9 9 9
WGst -- -- -- -- -- -- -- -- -- -- -- -- -- --
R13/31
XWnd 4 2 2 2 4 4 4 4 4 4 4 4 4 4
HWnd -11 -14 -14 -14 -8 -8 -8 -8 -8 -8 -8 -8 -8 -8
R18/36
XWnd -6 -9 -9 -9 -3 -3 -3 -3 -3 -3 -3 -3 -3 -3
HWnd -10 -11 -11 -11 -8 -8 -8 -8 -8 -8 -8 -8 -8 -8
Raw TAF
KVCT 231120Z 2312/2412 33010KT P6SM OVC012
  TEMPO 2312/2314 4SM BR OVC007
  FM231500 32014KT P6SM BKN013 OVC025
  FM231900 34009KT P6SM SCT050
  TEMPO 2408/2412 4SM BR BKN023


Raw METAR
KVCT 231451Z 33012KT 10SM OVC011 23/20 A2990 RMK AO2 SLP124 T02280200 51012
KVCT 231351Z 32010KT 10SM OVC011 22/21 A2989 RMK AO2 SLP121 T02170206
KVCT 231251Z 31008KT 9SM OVC010 22/20 A2989 RMK AO2 SLP118 T02170200

METAR Board
Radar Display
Forecast Discussion
For situational awareness. Not to be used for flight planning purposes.